Time;durP1;ratioP1;P1;durP2;ratioP2;P2;SDS_P1;SDS_P2;PMS_P1;PMS_P2;Temp;Humidity;BMP_temperature;BMP_pressure;BME280_temperature;BME280_humidity;BME280_pressure;Samples;Min_cycle;Max_cycle;Signal;HPM_P1;HPM_P2
2021/09/03 00:00:05;;;;;;;8.88;6.93;;;17.80;99.90;;;;;;5076447;28;21131;-66
2021/09/03 00:02:30;;;;;;;10.52;7.45;;;17.70;99.90;;;;;;5076455;28;20025;-67
2021/09/03 00:04:56;;;;;;;10.30;8.05;;;17.50;99.90;;;;;;5076371;28;20104;-67
2021/09/03 00:07:22;;;;;;;10.82;8.15;;;17.60;99.90;;;;;;5076571;28;20550;-67
2021/09/03 00:09:48;;;;;;;13.68;7.78;;;17.40;99.90;;;;;;5076221;28;20021;-68
2021/09/03 00:12:14;;;;;;;10.73;8.50;;;17.30;99.90;;;;;;5076394;28;20032;-67
2021/09/03 00:14:40;;;;;;;10.98;8.25;;;17.30;99.90;;;;;;5076151;28;20051;-65
2021/09/03 00:17:05;;;;;;;10.35;7.68;;;17.30;99.90;;;;;;5076457;28;20032;-67
2021/09/03 00:19:32;;;;;;;9.40;6.57;;;17.20;99.90;;;;;;5076408;28;20488;-68
2021/09/03 00:21:58;;;;;;;10.05;7.22;;;17.20;99.90;;;;;;5076364;28;20021;-68
2021/09/03 00:24:24;;;;;;;10.90;8.65;;;17.20;99.90;;;;;;5076242;28;20546;-68
2021/09/03 00:26:50;;;;;;;9.82;7.22;;;17.20;99.90;;;;;;5068021;28;20025;-68
2021/09/03 00:29:16;;;;;;;9.52;7.55;;;17.10;99.90;;;;;;5087146;28;20097;-67
2021/09/03 00:31:42;;;;;;;12.10;7.70;;;17.00;99.90;;;;;;5096391;28;20036;-67
2021/09/03 00:34:08;;;;;;;13.52;8.93;;;17.10;99.90;;;;;;5079873;28;20021;-68
2021/09/03 00:36:34;;;;;;;11.10;8.38;;;16.90;99.90;;;;;;5080073;28;20099;-68
2021/09/03 00:38:59;;;;;;;7.85;6.53;;;17.00;99.90;;;;;;5079656;28;20028;-68
2021/09/03 00:41:25;;;;;;;8.27;6.22;;;17.00;99.90;;;;;;5079762;28;20074;-68
2021/09/03 00:43:51;;;;;;;14.73;7.97;;;16.60;99.90;;;;;;5079904;28;20426;-68
2021/09/03 00:46:17;;;;;;;12.60;8.32;;;16.60;99.90;;;;;;5078415;28;20035;-68
2021/09/03 00:48:43;;;;;;;13.95;8.45;;;16.50;99.90;;;;;;5079818;28;20025;-68
2021/09/03 00:51:09;;;;;;;12.40;8.32;;;16.60;99.90;;;;;;5079759;28;20052;-68
2021/09/03 00:53:36;;;;;;;15.88;8.23;;;16.60;99.90;;;;;;5079512;28;20020;-68
2021/09/03 00:56:02;;;;;;;11.43;8.40;;;16.60;99.90;;;;;;5077865;28;20442;-68
2021/09/03 00:58:28;;;;;;;14.07;8.30;;;16.50;99.90;;;;;;5078126;28;20033;-68
2021/09/03 01:00:54;;;;;;;15.68;8.43;;;16.50;99.90;;;;;;5079581;28;20070;-68
2021/09/03 01:03:20;;;;;;;11.00;8.73;;;16.40;99.90;;;;;;5079257;28;20024;-67
2021/09/03 01:05:46;;;;;;;12.75;7.80;;;16.50;99.90;;;;;;5079758;28;20025;-68
2021/09/03 01:08:12;;;;;;;12.55;7.47;;;16.60;99.90;;;;;;5079426;28;20021;-68
2021/09/03 01:10:38;;;;;;;10.07;7.32;;;16.40;99.90;;;;;;5078080;28;20055;-68
2021/09/03 01:13:05;;;;;;;11.73;8.18;;;16.50;99.90;;;;;;5078805;28;20017;-68
2021/09/03 01:15:31;;;;;;;12.82;7.43;;;16.50;99.90;;;;;;5077924;28;20028;-67
2021/09/03 01:17:57;;;;;;;10.05;7.63;;;16.10;99.90;;;;;;5079030;28;20035;-68
2021/09/03 01:20:23;;;;;;;10.70;7.18;;;16.30;99.90;;;;;;5079249;28;20496;-68
2021/09/03 01:22:49;;;;;;;14.80;7.90;;;16.40;99.90;;;;;;5079184;28;20027;-67
2021/09/03 01:25:15;;;;;;;11.30;8.70;;;16.20;99.90;;;;;;5079268;28;20492;-68
2021/09/03 01:27:43;;;;;;;10.68;7.95;;;16.10;99.90;;;;;;5078758;28;20016;-68
2021/09/03 01:30:17;;;;;;;8.25;7.00;;;15.90;99.90;;;;;;5077786;28;20067;-68
2021/09/03 01:32:44;;;;;;;11.57;8.20;;;15.90;99.90;;;;;;5078958;28;20080;-68
2021/09/03 01:35:10;;;;;;;11.25;8.65;;;15.90;99.90;;;;;;5078898;28;20055;-68
2021/09/03 01:37:36;;;;;;;14.65;9.02;;;15.80;99.90;;;;;;5078724;28;20028;-68
2021/09/03 01:40:03;;;;;;;8.27;7.13;;;15.80;99.90;;;;;;5078801;28;20035;-68
2021/09/03 01:42:29;;;;;;;15.88;9.15;;;15.80;99.90;;;;;;5076528;28;20021;-68
2021/09/03 01:44:55;;;;;;;12.07;8.38;;;15.70;99.90;;;;;;5077542;28;20028;-68
2021/09/03 01:47:21;;;;;;;10.23;7.72;;;15.70;99.90;;;;;;5078662;28;20025;-68
2021/09/03 01:49:46;;;;;;;10.38;7.97;;;16.10;99.90;;;;;;5078862;28;20028;-68
2021/09/03 01:52:12;;;;;;;10.43;7.13;;;15.90;99.90;;;;;;5078659;28;20017;-68
2021/09/03 01:54:38;;;;;;;13.13;9.38;;;15.80;99.90;;;;;;5078647;28;20025;-68
2021/09/03 01:57:04;;;;;;;8.95;7.03;;;16.10;99.90;;;;;;5078005;28;20021;-68
2021/09/03 01:59:30;;;;;;;9.88;7.35;;;15.80;99.90;;;;;;5078615;28;20063;-68
2021/09/03 02:01:55;;;;;;;12.52;8.95;;;15.70;99.90;;;;;;5078249;28;20099;-68
2021/09/03 02:04:21;;;;;;;12.18;7.47;;;15.60;99.90;;;;;;5078356;28;20096;-68
2021/09/03 02:06:47;;;;;;;12.05;8.30;;;16.00;99.90;;;;;;5078154;28;20055;-68
2021/09/03 02:09:13;;;;;;;13.68;10.00;;;15.90;99.90;;;;;;5078504;28;20024;-68
2021/09/03 02:11:39;;;;;;;10.10;7.88;;;16.10;99.90;;;;;;5077763;28;20103;-68
2021/09/03 02:14:05;;;;;;;15.75;7.55;;;16.00;99.90;;;;;;5078331;28;20021;-68
2021/09/03 02:16:31;;;;;;;17.63;9.40;;;15.90;99.90;;;;;;5077912;28;20048;-68
2021/09/03 02:18:58;;;;;;;12.18;8.15;;;15.80;99.90;;;;;;5078114;28;20063;-68
2021/09/03 02:21:24;;;;;;;12.52;9.65;;;16.00;99.90;;;;;;5076594;28;20016;-67
2021/09/03 02:23:50;;;;;;;9.60;8.13;;;16.00;99.90;;;;;;5077980;28;20397;-68
2021/09/03 02:26:16;;;;;;;17.67;9.02;;;16.10;99.90;;;;;;5077495;28;20070;-67
2021/09/03 02:28:42;;;;;;;13.43;9.15;;;16.10;99.90;;;;;;5077987;28;20051;-68
2021/09/03 02:31:08;;;;;;;11.00;9.10;;;16.00;99.90;;;;;;5076330;28;20025;-67
2021/09/03 02:33:34;;;;;;;11.63;8.40;;;16.20;99.90;;;;;;5077736;28;20507;-67
2021/09/03 02:35:59;;;;;;;10.68;8.77;;;16.20;99.90;;;;;;5077384;28;20111;-67
2021/09/03 02:38:25;;;;;;;12.02;9.23;;;15.80;99.90;;;;;;5076287;28;20024;-68
2021/09/03 02:40:51;;;;;;;14.75;9.32;;;16.20;99.90;;;;;;5077285;28;20017;-67
2021/09/03 02:43:17;;;;;;;11.43;8.55;;;16.20;99.90;;;;;;5077656;28;20100;-68
2021/09/03 02:45:43;;;;;;;14.95;9.38;;;16.10;99.90;;;;;;5077545;28;20044;-68
2021/09/03 02:48:08;;;;;;;10.32;8.02;;;16.30;99.90;;;;;;5076234;28;20172;-68
2021/09/03 02:50:34;;;;;;;10.65;8.00;;;16.10;99.90;;;;;;5077374;28;20028;-68
2021/09/03 02:53:00;;;;;;;12.68;8.63;;;16.10;99.90;;;;;;5076554;28;20039;-68
2021/09/03 02:55:27;;;;;;;13.88;10.40;;;16.10;99.90;;;;;;5077062;28;20039;-68
2021/09/03 02:57:54;;;;;;;13.25;9.13;;;15.70;99.90;;;;;;5077181;28;20032;-68
2021/09/03 03:00:20;;;;;;;8.82;7.93;;;15.80;99.90;;;;;;5077188;28;20085;-68
2021/09/03 03:02:46;;;;;;;10.27;6.75;;;15.70;99.90;;;;;;5077287;28;20025;-68
2021/09/03 03:05:12;;;;;;;12.85;8.60;;;15.80;99.90;;;;;;5077254;28;20085;-68
2021/09/03 03:07:38;;;;;;;8.95;7.93;;;16.60;99.90;;;;;;5077284;28;20066;-67
2021/09/03 03:10:05;;;;;;;12.73;8.10;;;15.80;99.90;;;;;;5075589;28;20032;-68
2021/09/03 03:12:31;;;;;;;10.75;8.20;;;16.20;99.90;;;;;;5076993;28;20485;-67
2021/09/03 03:14:57;;;;;;;10.45;7.00;;;16.10;99.90;;;;;;5076955;28;20124;-68
2021/09/03 03:17:22;;;;;;;10.88;8.00;;;16.20;99.90;;;;;;5076933;28;20024;-68
2021/09/03 03:19:48;;;;;;;11.40;9.23;;;16.10;99.90;;;;;;5076869;28;20091;-68
2021/09/03 03:22:14;;;;;;;11.93;8.50;;;16.30;99.90;;;;;;5077156;28;20020;-68
2021/09/03 03:24:40;;;;;;;16.55;8.93;;;16.10;99.90;;;;;;5076973;28;20111;-68
2021/09/03 03:27:06;;;;;;;10.13;8.23;;;16.00;99.90;;;;;;5076507;28;20036;-68
2021/09/03 03:29:32;;;;;;;11.48;8.75;;;16.20;99.90;;;;;;5076795;28;20028;-67
2021/09/03 03:31:58;;;;;;;11.68;9.23;;;16.10;99.90;;;;;;5076671;28;20059;-67
2021/09/03 03:34:24;;;;;;;16.77;10.77;;;16.10;99.90;;;;;;5076533;28;20037;-68
2021/09/03 03:36:50;;;;;;;12.00;9.75;;;16.20;99.90;;;;;;5076772;28;20178;-68
2021/09/03 03:39:15;;;;;;;14.25;9.52;;;16.30;99.90;;;;;;5076532;28;20047;-68
2021/09/03 03:41:42;;;;;;;11.77;8.55;;;16.50;99.90;;;;;;5076494;28;20028;-68
2021/09/03 03:44:08;;;;;;;13.82;8.18;;;16.40;99.90;;;;;;5076599;28;20389;-68
2021/09/03 03:46:34;;;;;;;13.93;9.38;;;16.50;99.90;;;;;;5076731;28;20032;-68
2021/09/03 03:49:00;;;;;;;20.48;9.90;;;16.50;99.90;;;;;;5076562;28;20035;-68
2021/09/03 03:51:25;;;;;;;12.32;8.40;;;16.40;99.90;;;;;;5076710;28;20033;-68
2021/09/03 03:53:51;;;;;;;15.30;9.63;;;16.50;99.90;;;;;;5076406;28;20028;-68
2021/09/03 03:56:17;;;;;;;10.98;8.90;;;16.50;99.90;;;;;;5076296;28;20931;-68
2021/09/03 03:58:44;;;;;;;13.18;10.07;;;16.60;99.90;;;;;;5076560;28;20031;-68
2021/09/03 04:01:10;;;;;;;12.23;9.20;;;16.60;99.90;;;;;;5076496;28;20020;-68
2021/09/03 04:03:36;;;;;;;15.13;10.70;;;16.60;99.90;;;;;;5076484;28;20032;-67
2021/09/03 04:06:02;;;;;;;15.27;10.15;;;16.50;99.90;;;;;;5080637;28;20033;-68
2021/09/03 04:08:28;;;;;;;13.70;9.85;;;16.70;99.90;;;;;;5080436;28;20047;-68
2021/09/03 04:10:53;;;;;;;17.90;11.10;;;16.60;99.90;;;;;;5080358;28;20403;-67
2021/09/03 04:13:20;;;;;;;10.85;8.90;;;16.50;99.90;;;;;;5080313;28;20032;-68
2021/09/03 04:15:46;;;;;;;15.00;9.98;;;16.50;99.90;;;;;;5080586;28;20111;-68
2021/09/03 04:18:12;;;;;;;11.88;10.05;;;16.70;99.90;;;;;;5079064;28;20016;-68
2021/09/03 04:20:38;;;;;;;12.60;9.60;;;16.70;99.90;;;;;;5080360;28;20446;-67
2021/09/03 04:23:04;;;;;;;14.88;9.95;;;16.60;99.90;;;;;;5078898;28;20062;-68
2021/09/03 04:25:30;;;;;;;15.52;10.75;;;16.60;99.90;;;;;;5080261;28;20408;-68
2021/09/03 04:27:56;;;;;;;13.98;10.23;;;16.50;99.90;;;;;;5078513;28;20116;-68
2021/09/03 04:30:21;;;;;;;12.27;9.48;;;16.50;99.90;;;;;;5080346;28;20117;-68
2021/09/03 04:32:47;;;;;;;15.10;10.18;;;16.50;99.90;;;;;;5079896;28;20590;-68
2021/09/03 04:35:13;;;;;;;15.80;9.52;;;16.60;99.90;;;;;;5080279;28;20053;-68
2021/09/03 04:37:47;;;;;;;16.35;9.05;;;16.60;99.90;;;;;;5079729;28;20070;-68
2021/09/03 04:40:14;;;;;;;11.75;8.70;;;16.50;99.90;;;;;;5078699;28;20082;-68
2021/09/03 04:42:40;;;;;;;14.73;9.75;;;16.80;99.90;;;;;;5079602;28;20448;-68
2021/09/03 04:45:08;;;;;;;13.65;9.38;;;16.60;99.90;;;;;;5079890;28;20039;-68
2021/09/03 04:47:35;;;;;;;14.75;11.27;;;16.60;99.90;;;;;;5079743;28;20108;-68
2021/09/03 04:50:02;;;;;;;15.55;9.50;;;16.60;99.90;;;;;;5079869;28;20385;-68
2021/09/03 04:52:28;;;;;;;14.50;10.73;;;16.70;99.90;;;;;;5079532;28;20017;-68
2021/09/03 04:54:53;;;;;;;13.68;10.18;;;16.60;99.90;;;;;;5079708;28;20028;-68
2021/09/03 04:57:19;;;;;;;14.60;10.55;;;16.60;99.90;;;;;;5079358;28;20027;-68
2021/09/03 04:59:45;;;;;;;10.82;9.57;;;16.60;99.90;;;;;;5079724;28;20013;-68
2021/09/03 05:02:11;;;;;;;11.63;9.82;;;16.60;99.90;;;;;;5079573;28;20021;-68
2021/09/03 05:04:37;;;;;;;12.57;9.13;;;16.60;99.90;;;;;;5079518;28;20025;-68
2021/09/03 05:07:03;;;;;;;10.50;8.30;;;16.60;99.90;;;;;;5079546;28;20397;-67
2021/09/03 05:09:28;;;;;;;15.88;10.48;;;16.50;99.90;;;;;;5079555;28;20074;-67
2021/09/03 05:11:54;;;;;;;12.35;10.30;;;16.50;99.90;;;;;;5078903;28;20029;-67
2021/09/03 05:14:21;;;;;;;12.68;8.80;;;16.60;99.90;;;;;;5079567;28;20051;-68
2021/09/03 05:16:46;;;;;;;16.17;10.15;;;16.70;99.90;;;;;;5077916;28;20047;-67
2021/09/03 05:19:12;;;;;;;15.05;11.10;;;16.50;99.90;;;;;;5074432;28;20020;-67
2021/09/03 05:21:38;;;;;;;10.93;9.02;;;16.90;99.90;;;;;;5078260;28;20051;-67
2021/09/03 05:24:04;;;;;;;15.40;10.73;;;16.60;99.90;;;;;;5079180;28;20449;-68
2021/09/03 05:26:30;;;;;;;15.48;10.00;;;16.70;99.90;;;;;;5071646;28;20025;-68
2021/09/03 05:28:56;;;;;;;18.05;12.50;;;16.70;99.90;;;;;;5069711;28;20512;-67
2021/09/03 05:31:22;;;;;;;18.02;11.57;;;16.60;99.90;;;;;;5078478;28;20032;-68
2021/09/03 05:33:48;;;;;;;15.32;10.57;;;16.60;99.90;;;;;;5075888;28;20064;-67
2021/09/03 05:36:14;;;;;;;12.48;9.55;;;16.60;99.90;;;;;;5078935;28;20800;-68
2021/09/03 05:38:40;;;;;;;15.15;10.82;;;16.30;99.90;;;;;;5090378;28;20488;-67
2021/09/03 05:41:06;;;;;;;11.38;9.80;;;16.50;99.90;;;;;;5097736;28;20028;-67
2021/09/03 05:43:32;;;;;;;11.38;9.30;;;16.50;99.90;;;;;;5098893;28;20020;-67
2021/09/03 05:45:58;;;;;;;21.05;11.63;;;16.60;99.90;;;;;;5098299;28;20499;-67
2021/09/03 05:48:24;;;;;;;15.82;10.93;;;16.80;99.90;;;;;;5098845;28;20020;-67
2021/09/03 05:50:49;;;;;;;15.50;10.25;;;16.60;99.90;;;;;;5098751;28;20103;-67
2021/09/03 05:53:16;;;;;;;12.52;10.40;;;16.80;99.90;;;;;;5098793;28;20103;-67
2021/09/03 05:55:41;;;;;;;11.90;9.95;;;16.50;99.90;;;;;;5098533;28;20392;-67
2021/09/03 05:58:07;;;;;;;11.65;10.05;;;17.00;99.90;;;;;;5098758;28;20032;-67
2021/09/03 06:00:33;;;;;;;12.38;9.18;;;16.50;99.90;;;;;;5098640;28;20084;-67
2021/09/03 06:02:59;;;;;;;16.08;11.07;;;16.60;99.90;;;;;;5098921;28;20502;-67
2021/09/03 06:05:26;;;;;;;13.15;9.73;;;16.60;99.90;;;;;;5098455;28;20027;-67
2021/09/03 06:07:52;;;;;;;16.77;10.43;;;16.80;99.90;;;;;;5098739;28;20024;-67
2021/09/03 06:10:17;;;;;;;12.93;10.05;;;16.50;99.90;;;;;;5098375;28;20055;-66
2021/09/03 06:12:43;;;;;;;17.73;9.57;;;16.70;99.90;;;;;;5098428;28;20099;-67
2021/09/03 06:15:10;;;;;;;19.98;11.90;;;16.70;99.90;;;;;;5098258;28;20028;-67
2021/09/03 06:17:36;;;;;;;11.63;9.80;;;16.70;99.90;;;;;;5098424;28;20028;-67
2021/09/03 06:20:06;;;;;;;13.82;10.68;;;16.60;99.90;;;;;;5098150;28;20031;-67
2021/09/03 06:22:32;;;;;;;16.05;10.40;;;16.70;99.90;;;;;;5098417;28;20024;-67
2021/09/03 06:24:58;;;;;;;19.85;11.57;;;17.00;99.90;;;;;;5096871;28;20035;-67
2021/09/03 06:27:24;;;;;;;12.65;10.93;;;16.60;99.90;;;;;;5072390;28;20389;-67
2021/09/03 06:29:52;;;;;;;16.08;10.30;;;16.70;99.90;;;;;;5077295;28;20033;-67
2021/09/03 06:32:23;;;;;;;14.95;11.27;;;16.70;99.90;;;;;;5077750;28;20020;-67
2021/09/03 06:34:52;;;;;;;18.08;11.20;;;16.70;99.90;;;;;;5065145;28;20048;-66
2021/09/03 06:37:19;;;;;;;12.77;9.88;;;16.70;99.90;;;;;;5077625;28;20033;-67
2021/09/03 06:39:46;;;;;;;21.27;11.55;;;16.80;99.90;;;;;;5077718;28;20026;-67
2021/09/03 06:42:12;;;;;;;13.48;10.57;;;16.80;99.90;;;;;;5077623;28;20017;-67
2021/09/03 06:44:39;;;;;;;16.50;12.73;;;16.50;99.90;;;;;;5077613;28;20031;-67
2021/09/03 06:47:06;;;;;;;14.27;11.07;;;16.60;99.90;;;;;;5077659;28;20060;-67
2021/09/03 06:49:33;;;;;;;14.07;11.65;;;16.60;99.90;;;;;;5077684;28;20060;-67
2021/09/03 06:52:00;;;;;;;13.43;9.48;;;16.70;99.90;;;;;;5077383;28;20106;-66
2021/09/03 06:54:26;;;;;;;14.13;11.43;;;16.60;99.90;;;;;;5077414;28;20028;-66
2021/09/03 06:56:52;;;;;;;13.63;11.38;;;16.60;99.90;;;;;;5077138;28;20354;-66
2021/09/03 06:59:17;;;;;;;16.50;11.57;;;16.50;99.90;;;;;;5077505;28;20054;-66
2021/09/03 07:01:43;;;;;;;14.80;11.48;;;16.50;99.90;;;;;;5077289;28;20013;-66
2021/09/03 07:04:09;;;;;;;17.52;12.68;;;16.60;99.90;;;;;;5077457;28;20024;-66
2021/09/03 07:06:35;;;;;;;13.15;10.60;;;16.70;99.90;;;;;;5077032;28;20025;-66
2021/09/03 07:09:05;;;;;;;14.00;10.73;;;16.80;99.90;;;;;;5077061;28;20025;-66
2021/09/03 07:11:31;;;;;;;12.50;10.55;;;16.50;99.90;;;;;;5076912;28;20056;-66
2021/09/03 07:13:58;;;;;;;18.55;12.63;;;16.70;99.90;;;;;;5077271;28;20032;-66
2021/09/03 07:16:24;;;;;;;18.50;12.60;;;16.60;99.90;;;;;;5076999;28;20021;-66
2021/09/03 07:18:50;;;;;;;14.60;10.50;;;16.60;99.90;;;;;;5077150;28;20028;-66
2021/09/03 07:21:16;;;;;;;13.35;10.30;;;16.50;99.90;;;;;;5076888;28;20062;-66
2021/09/03 07:23:42;;;;;;;13.43;11.13;;;16.80;99.90;;;;;;5077096;28;20021;-67
2021/09/03 07:26:08;;;;;;;11.65;9.93;;;16.50;99.90;;;;;;5076581;28;20485;-66
2021/09/03 07:28:34;;;;;;;16.42;11.98;;;17.10;99.90;;;;;;5077013;28;20024;-66
2021/09/03 07:30:59;;;;;;;16.48;11.35;;;17.00;99.90;;;;;;5076837;28;20133;-66
2021/09/03 07:33:25;;;;;;;18.23;13.07;;;17.10;99.90;;;;;;5076569;28;20016;-66
2021/09/03 07:35:51;;;;;;;15.40;12.10;;;16.70;99.90;;;;;;5076761;28;20068;-67
2021/09/03 07:38:17;;;;;;;21.58;13.45;;;17.10;99.90;;;;;;5076416;28;20025;-67
2021/09/03 07:40:44;;;;;;;17.92;12.75;;;16.60;99.90;;;;;;5076349;28;20024;-67
2021/09/03 07:43:10;;;;;;;16.75;11.85;;;16.70;99.90;;;;;;5076798;28;20064;-67
2021/09/03 07:45:38;;;;;;;16.05;12.45;;;16.60;99.90;;;;;;5076640;28;20068;-67
2021/09/03 07:48:04;;;;;;;12.07;10.85;;;16.70;99.90;;;;;;5076833;28;20115;-67
2021/09/03 07:50:32;;;;;;;13.23;10.40;;;17.00;99.90;;;;;;5076738;28;20116;-67
2021/09/03 07:53:01;;;;;;;19.08;13.27;;;17.00;99.90;;;;;;5076664;28;20024;-67
2021/09/03 07:55:27;;;;;;;16.67;12.30;;;17.10;99.90;;;;;;5076119;28;20037;-66
2021/09/03 07:57:52;;;;;;;11.95;9.23;;;17.20;99.90;;;;;;5076613;28;20028;-67
2021/09/03 08:00:18;;;;;;;14.95;12.57;;;17.50;99.90;;;;;;5076575;28;20035;-67
2021/09/03 08:02:44;;;;;;;19.08;13.85;;;17.30;99.90;;;;;;5076696;28;20020;-67
2021/09/03 08:05:11;;;;;;;16.85;11.70;;;17.50;99.90;;;;;;5076626;28;20507;-67
2021/09/03 08:07:41;;;;;;;14.10;10.80;;;17.20;99.90;;;;;;5076679;28;20020;-67
2021/09/03 08:10:11;;;;;;;15.18;13.02;;;17.40;99.90;;;;;;5076322;28;20398;-67
2021/09/03 08:12:39;;;;;;;18.48;14.25;;;17.70;99.90;;;;;;5076147;28;20032;-67
2021/09/03 08:15:06;;;;;;;18.17;11.75;;;17.90;99.90;;;;;;5076386;28;20039;-67
2021/09/03 08:17:33;;;;;;;11.45;9.80;;;17.90;99.90;;;;;;5076405;28;20384;-66
2021/09/03 08:19:59;;;;;;;17.77;13.18;;;18.00;99.90;;;;;;5076259;28;20051;-67
2021/09/03 08:22:26;;;;;;;18.20;14.60;;;17.90;99.90;;;;;;5076482;28;20021;-67
2021/09/03 08:24:52;;;;;;;33.30;27.98;;;17.80;99.90;;;;;;5076158;28;20025;-67
2021/09/03 08:27:18;;;;;;;28.77;25.70;;;17.90;99.90;;;;;;5075950;28;20115;-67
2021/09/03 08:29:45;;;;;;;32.72;24.67;;;17.90;99.90;;;;;;5076295;28;20029;-67
2021/09/03 08:32:12;;;;;;;21.65;15.52;;;17.70;99.90;;;;;;5076300;28;20023;-67
2021/09/03 08:34:38;;;;;;;21.80;16.88;;;17.50;99.90;;;;;;5075973;28;20044;-67
2021/09/03 08:37:04;;;;;;;23.13;16.00;;;17.40;99.90;;;;;;5076124;28;20028;-67
2021/09/03 08:39:30;;;;;;;20.42;13.88;;;17.50;99.90;;;;;;5076024;28;20029;-67
2021/09/03 08:41:56;;;;;;;19.45;12.45;;;17.40;99.90;;;;;;5075922;28;20104;-67
2021/09/03 08:44:22;;;;;;;25.08;12.85;;;17.50;99.90;;;;;;5076015;28;20080;-67
2021/09/03 08:46:48;;;;;;;22.40;13.30;;;17.40;99.90;;;;;;5076185;28;20036;-67
2021/09/03 08:49:14;;;;;;;20.92;14.82;;;17.40;99.90;;;;;;5076056;28;20021;-67
2021/09/03 08:51:41;;;;;;;18.25;13.65;;;17.40;99.90;;;;;;5078293;28;20085;-67
2021/09/03 08:54:07;;;;;;;16.95;12.55;;;17.60;99.90;;;;;;5079567;28;20029;-67
2021/09/03 08:56:33;;;;;;;14.65;12.52;;;17.50;99.90;;;;;;5079344;28;20020;-67
2021/09/03 08:58:59;;;;;;;13.35;10.57;;;17.40;99.90;;;;;;5079474;28;20103;-67
2021/09/03 09:01:24;;;;;;;12.85;11.35;;;17.60;99.90;;;;;;5079567;28;20017;-67
2021/09/03 09:03:52;;;;;;;14.20;11.45;;;17.70;99.90;;;;;;5079483;28;20024;-67
2021/09/03 09:06:26;;;;;;;16.02;11.00;;;17.50;99.90;;;;;;5079536;28;20078;-67
2021/09/03 09:09:07;;;;;;;11.15;8.93;;;17.90;99.90;;;;;;5079465;28;20055;-67
2021/09/03 09:11:35;;;;;;;16.45;11.48;;;17.60;99.90;;;;;;5079183;28;20025;-65
2021/09/03 09:14:05;;;;;;;13.43;9.75;;;17.90;99.90;;;;;;5079566;28;20112;-66
2021/09/03 09:16:32;;;;;;;15.00;10.80;;;17.80;99.90;;;;;;5079120;28;20079;-67
2021/09/03 09:19:04;;;;;;;15.02;10.35;;;18.00;99.90;;;;;;5079475;28;20024;-67
2021/09/03 09:21:35;;;;;;;13.32;11.02;;;18.40;99.90;;;;;;5079208;28;20017;-67
2021/09/03 09:24:12;;;;;;;15.27;11.88;;;18.40;99.90;;;;;;5079149;28;20058;-67
2021/09/03 09:26:56;;;;;;;16.58;9.95;;;18.90;99.90;;;;;;5077682;28;20031;-67
2021/09/03 09:29:28;;;;;;;16.55;11.18;;;18.80;99.90;;;;;;5079118;28;20031;-67
2021/09/03 09:32:17;;;;;;;12.07;9.70;;;18.80;99.90;;;;;;5077523;28;20020;-67
2021/09/03 09:34:44;;;;;;;14.95;11.32;;;19.30;99.90;;;;;;5078603;28;20044;-67
2021/09/03 09:37:14;;;;;;;21.40;13.50;;;19.30;99.90;;;;;;5079130;28;20025;-67
2021/09/03 09:39:49;;;;;;;18.65;13.60;;;19.40;99.90;;;;;;5079084;28;20021;-67
2021/09/03 09:42:28;;;;;;;13.63;11.32;;;19.90;99.90;;;;;;5078834;28;20060;-67
2021/09/03 09:45:13;;;;;;;21.80;15.30;;;20.10;99.90;;;;;;5079038;28;20024;-67
2021/09/03 09:47:40;;;;;;;14.43;11.25;;;20.20;99.90;;;;;;5078708;28;20055;-67
2021/09/03 09:50:25;;;;;;;13.65;11.35;;;20.60;99.90;;;;;;5078789;28;20017;-67
2021/09/03 09:52:51;;;;;;;11.38;9.98;;;;;;;;;;5078612;28;20098;-67
2021/09/03 09:55:18;;;;;;;13.52;9.75;;;;;;;;;;5078219;28;20107;-67
2021/09/03 09:57:48;;;;;;;13.00;9.13;;;;;;;;;;5078486;28;20062;-67
2021/09/03 10:00:15;;;;;;;9.25;7.82;;;;;;;;;;5078419;28;20025;-65
2021/09/03 10:02:43;;;;;;;10.02;8.20;;;22.20;99.90;;;;;;5078224;28;20029;-65
2021/09/03 10:05:10;;;;;;;12.52;9.73;;;22.30;99.90;;;;;;5078466;28;20021;-65
2021/09/03 10:07:37;;;;;;;12.73;8.88;;;22.90;99.90;;;;;;5078529;28;20027;-66
2021/09/03 10:10:03;;;;;;;18.60;9.05;;;23.50;99.90;;;;;;5078118;28;20025;-65
2021/09/03 10:12:31;;;;;;;9.70;7.57;;;23.70;99.90;;;;;;5078200;28;20024;-65
2021/09/03 10:14:57;;;;;;;12.75;7.78;;;24.20;99.90;;;;;;5078176;28;20111;-65
2021/09/03 10:17:23;;;;;;;11.93;8.38;;;25.70;99.90;;;;;;5078139;28;20097;-65
2021/09/03 10:19:54;;;;;;;11.88;8.57;;;24.30;99.90;;;;;;5077944;28;20017;-65
2021/09/03 10:22:21;;;;;;;15.25;8.52;;;24.50;99.90;;;;;;5078281;28;20020;-65
2021/09/03 10:25:07;;;;;;;9.50;6.53;;;24.40;99.90;;;;;;5078075;28;20021;-65
2021/09/03 10:27:34;;;;;;;11.85;8.05;;;24.40;99.90;;;;;;5077645;28;20021;-65
2021/09/03 10:30:17;;;;;;;10.13;7.15;;;24.30;99.90;;;;;;5077995;28;20029;-66
2021/09/03 10:32:43;;;;;;;11.23;8.40;;;24.30;99.90;;;;;;5077772;28;20063;-66
2021/09/03 10:35:22;;;;;;;8.52;7.28;;;24.30;99.90;;;;;;5078050;28;20047;-65
2021/09/03 10:37:49;;;;;;;8.55;7.60;;;24.20;99.90;;;;;;5077679;28;20491;-66
2021/09/03 10:40:47;;;;;;;11.18;7.70;;;24.10;99.90;;;;;;5077725;28;20381;-65
2021/09/03 10:43:13;;;;;;;7.35;6.15;;;24.40;99.90;;;;;;5024142;28;20035;-65
2021/09/03 10:45:43;;;;;;;11.75;7.05;;;24.60;99.90;;;;;;5073931;28;20134;-65
2021/09/03 10:48:19;;;;;;;10.98;7.30;;;24.70;99.90;;;;;;5077799;28;20016;-65
2021/09/03 10:51:05;;;;;;;10.98;6.78;;;24.80;99.90;;;;;;5077430;28;20024;-66
2021/09/03 10:53:41;;;;;;;8.00;7.18;;;24.90;99.90;;;;;;5077304;28;20063;-66
2021/09/03 10:56:17;;;;;;;7.05;6.32;;;24.80;99.90;;;;;;5077324;28;20048;-66
2021/09/03 10:58:56;;;;;;;9.15;7.30;;;24.60;99.90;;;;;;5077418;28;20362;-66
2021/09/03 11:01:25;;;;;;;10.35;8.13;;;24.30;99.90;;;;;;5077261;28;20021;-66
2021/09/03 11:04:06;;;;;;;14.18;8.73;;;24.40;99.90;;;;;;5077082;28;20473;-66
2021/09/03 11:06:38;;;;;;;8.18;6.30;;;24.40;99.90;;;;;;5077231;28;20063;-66
2021/09/03 11:09:19;;;;;;;8.43;6.18;;;24.80;99.90;;;;;;5077058;28;20059;-66
2021/09/03 11:11:47;;;;;;;10.57;6.40;;;25.40;99.90;;;;;;5076656;28;20108;-66
2021/09/03 11:14:18;;;;;;;8.73;6.68;;;25.70;99.90;;;;;;5076484;28;20118;-66
2021/09/03 11:16:50;;;;;;;8.90;6.97;;;26.40;99.90;;;;;;5076789;28;20392;-66
2021/09/03 11:19:28;;;;;;;6.45;5.72;;;28.40;99.90;;;;;;5076918;28;20064;-66
2021/09/03 11:22:08;;;;;;;4.88;4.15;;;29.50;99.20;;;;;;5077055;28;20147;-66
2021/09/03 11:24:39;;;;;;;5.07;4.53;;;;;;;;;;5075391;28;20570;-66
2021/09/03 11:27:07;;;;;;;7.25;4.25;;;31.10;96.00;;;;;;5076600;28;20032;-66
2021/09/03 11:29:42;;;;;;;6.38;4.40;;;31.20;94.90;;;;;;5076807;28;20021;-67
2021/09/03 11:32:15;;;;;;;5.40;4.68;;;32.00;92.80;;;;;;5076733;28;20024;-66
2021/09/03 11:34:42;;;;;;;6.05;4.40;;;32.80;92.20;;;;;;5076657;28;20102;-67
2021/09/03 11:37:08;;;;;;;7.88;5.95;;;32.90;90.60;;;;;;5076737;28;20043;-67
2021/09/03 11:39:34;;;;;;;6.30;5.03;;;33.40;89.20;;;;;;5076543;28;20835;-67
2021/09/03 11:42:00;;;;;;;9.82;5.57;;;33.60;87.50;;;;;;5076590;28;20016;-67
2021/09/03 11:44:27;;;;;;;4.00;2.90;;;33.30;85.20;;;;;;5076656;28;20020;-67
2021/09/03 11:46:53;;;;;;;4.15;3.53;;;33.20;87.80;;;;;;5076699;28;20025;-67
2021/09/03 11:49:23;;;;;;;6.22;3.03;;;33.70;87.90;;;;;;5076615;28;20032;-67
2021/09/03 11:52:05;;;;;;;5.50;3.38;;;34.30;86.20;;;;;;5076669;28;20024;-67
2021/09/03 11:54:31;;;;;;;3.28;2.75;;;34.60;83.40;;;;;;5076628;28;20027;-67
2021/09/03 11:56:58;;;;;;;5.38;3.63;;;34.60;82.90;;;;;;5076241;28;20407;-67
2021/09/03 11:59:24;;;;;;;5.47;3.25;;;34.70;81.00;;;;;;5076715;28;20626;-67
2021/09/03 12:02:05;;;;;;;3.65;2.85;;;34.60;79.90;;;;;;5076574;28;20028;-67
2021/09/03 12:04:32;;;;;;;5.63;3.20;;;35.10;76.50;;;;;;5076597;28;20025;-67
2021/09/03 12:06:58;;;;;;;4.78;3.47;;;35.20;78.00;;;;;;5076495;28;20025;-67
2021/09/03 12:09:34;;;;;;;3.78;2.88;;;35.30;76.90;;;;;;5076342;28;20023;-67
2021/09/03 12:12:00;;;;;;;4.72;3.38;;;35.60;73.30;;;;;;5076009;28;20074;-67
2021/09/03 12:14:26;;;;;;;5.07;3.60;;;35.50;75.00;;;;;;5076534;28;20052;-67
2021/09/03 12:16:52;;;;;;;3.80;2.90;;;35.10;76.10;;;;;;5076372;28;20384;-67
2021/09/03 12:19:23;;;;;;;3.55;3.08;;;35.20;77.00;;;;;;5076469;28;20043;-67
2021/09/03 12:21:50;;;;;;;4.75;2.60;;;35.10;74.40;;;;;;5075041;28;20029;-67
2021/09/03 12:24:16;;;;;;;4.65;2.40;;;35.30;74.00;;;;;;5076247;28;20099;-67
2021/09/03 12:26:56;;;;;;;3.22;2.78;;;35.40;74.00;;;;;;5079808;28;20530;-67
2021/09/03 12:29:28;;;;;;;2.45;2.10;;;35.50;75.00;;;;;;5078926;28;20028;-67
2021/09/03 12:32:00;;;;;;;3.75;2.95;;;35.60;73.70;;;;;;5078824;28;20024;-67
2021/09/03 12:34:29;;;;;;;4.50;2.88;;;35.80;73.90;;;;;;5079907;28;20043;-68
2021/09/03 12:37:06;;;;;;;4.50;2.35;;;36.20;73.50;;;;;;5080191;28;20029;-68